createdAt,value
2018-03-04T00:00:35.059Z,67.11
2018-03-04T00:03:04.161Z,66.91
2018-03-04T00:05:32.434Z,67.26
2018-03-04T00:08:01.412Z,66.44
2018-03-04T00:10:30.101Z,66.84
2018-03-04T00:12:58.380Z,67.04
2018-03-04T00:15:26.777Z,67.40
2018-03-04T00:17:55.545Z,67.52
2018-03-04T00:20:24.229Z,67.31
2018-03-04T00:22:52.505Z,67.75
2018-03-04T00:25:21.062Z,67.16
2018-03-04T00:27:49.339Z,66.93
2018-03-04T00:30:17.850Z,66.49
2018-03-04T00:32:46.335Z,67.05
2018-03-04T00:35:14.612Z,66.66
2018-03-04T00:37:42.917Z,66.52
2018-03-04T00:40:12.002Z,67.13
2018-03-04T00:42:40.921Z,67.59
2018-03-04T00:45:09.985Z,68.11
2018-03-04T00:47:38.272Z,67.69
2018-03-04T00:50:06.564Z,67.91
2018-03-04T00:52:34.999Z,68.06
2018-03-04T00:55:03.536Z,68.43
2018-03-04T00:57:32.586Z,68.33
2018-03-04T01:00:01.057Z,68.65
2018-03-04T01:02:29.349Z,68.27
2018-03-04T01:04:58.445Z,68.61
2018-03-04T01:07:26.760Z,68.76
2018-03-04T01:09:55.582Z,68.63
2018-03-04T01:12:23.893Z,68.49
2018-03-04T01:14:52.574Z,68.31
2018-03-04T01:17:20.866Z,68.24
2018-03-04T01:19:49.848Z,68.13
2018-03-04T01:22:18.149Z,67.99
2018-03-04T01:24:46.467Z,68.23
2018-03-04T01:27:14.761Z,68.34
2018-03-04T01:29:43.075Z,68.52
2018-03-04T01:32:11.952Z,67.80
2018-03-04T01:34:40.228Z,68.01
2018-03-04T01:37:08.580Z,67.95
2018-03-04T01:39:36.900Z,68.69
2018-03-04T01:42:05.577Z,68.60
2018-03-04T01:44:34.054Z,68.04
2018-03-04T01:47:02.444Z,68.33
2018-03-04T01:49:30.724Z,68.07
2018-03-04T01:51:59.070Z,68.93
2018-03-04T01:54:27.348Z,68.92
2018-03-04T01:56:55.628Z,68.91
2018-03-04T01:59:24.146Z,69.19
2018-03-04T02:01:52.513Z,69.03
2018-03-04T02:04:21.449Z,69.23
2018-03-04T02:06:50.503Z,69.53
2018-03-04T02:09:18.820Z,69.31
2018-03-04T02:11:49.024Z,69.26
2018-03-04T02:14:17.313Z,69.20
2018-03-04T02:16:45.658Z,68.97
2018-03-04T02:19:13.941Z,69.41
2018-03-04T02:21:42.304Z,68.54
2018-03-04T02:24:10.780Z,69.20
2018-03-04T02:26:40.076Z,68.70
2018-03-04T02:29:08.371Z,68.22
2018-03-04T02:31:37.162Z,67.95
2018-03-04T02:34:05.436Z,67.57
2018-03-04T02:36:33.976Z,67.74
2018-03-04T02:39:03.446Z,67.78
2018-03-04T02:41:31.799Z,68.02
2018-03-04T02:44:00.528Z,68.07
2018-03-04T02:46:29.508Z,67.24
2018-03-04T02:48:58.440Z,67.32
2018-03-04T02:51:27.578Z,67.06
2018-03-04T02:53:55.878Z,66.95
2018-03-04T02:56:24.150Z,67.17
2018-03-04T02:58:52.836Z,67.22
2018-03-04T03:01:21.828Z,67.33
2018-03-04T03:03:50.181Z,67.12
2018-03-04T03:06:18.601Z,67.13
2018-03-04T03:08:46.876Z,65.98
2018-03-04T03:11:15.968Z,66.28
2018-03-04T03:13:44.654Z,66.34
2018-03-04T03:16:13.532Z,66.09
2018-03-04T03:18:43.173Z,65.28
2018-03-04T03:21:12.339Z,65.46
2018-03-04T03:23:40.613Z,65.75
2018-03-04T03:26:08.892Z,65.40
2018-03-04T03:28:37.220Z,64.74
2018-03-04T03:31:06.289Z,65.38
2018-03-04T03:33:34.853Z,65.47
2018-03-04T03:36:03.148Z,64.84
2018-03-04T03:38:31.435Z,65.03
2018-03-04T03:40:59.743Z,65.32
2018-03-04T03:43:28.853Z,64.26
2018-03-04T03:45:58.600Z,64.57
2018-03-04T03:48:26.984Z,64.80
2018-03-04T03:50:56.208Z,64.49
2018-03-04T03:53:25.231Z,64.93
2018-03-04T03:55:54.417Z,64.24
2018-03-04T03:58:22.699Z,64.20
2018-03-04T04:00:51.776Z,64.30
2018-03-04T04:03:20.125Z,64.54
2018-03-04T04:05:48.940Z,64.97
2018-03-04T04:08:17.648Z,64.87
2018-03-04T04:10:46.912Z,65.47
2018-03-04T04:13:15.199Z,64.74
2018-03-04T04:15:44.195Z,64.41
2018-03-04T04:18:12.989Z,64.70
2018-03-04T04:20:41.968Z,64.78
2018-03-04T04:23:10.330Z,64.65
2018-03-04T04:25:38.823Z,63.71
2018-03-04T04:28:07.657Z,63.22
2018-03-04T04:30:38.668Z,63.54
2018-03-04T04:33:06.968Z,63.43
2018-03-04T04:35:35.244Z,63.41
2018-03-04T04:38:03.583Z,63.21
2018-03-04T04:40:32.427Z,62.83
2018-03-04T04:43:02.208Z,63.26
2018-03-04T04:45:30.515Z,63.64
2018-03-04T04:47:59.744Z,62.40
2018-03-04T04:50:28.359Z,63.07
2018-03-04T04:52:56.847Z,63.44
2018-03-04T04:55:25.645Z,62.33
2018-03-04T04:57:53.975Z,63.52
2018-03-04T05:00:22.275Z,62.61
2018-03-04T05:02:50.881Z,63.75
2018-03-04T05:05:19.151Z,63.56
2018-03-04T05:07:47.459Z,61.83
2018-03-04T05:10:15.808Z,62.23
2018-03-04T05:12:44.119Z,62.35
2018-03-04T05:15:12.408Z,63.11
2018-03-04T05:17:40.951Z,62.63
2018-03-04T05:20:09.231Z,63.32
2018-03-04T05:22:37.515Z,63.49
2018-03-04T05:25:05.885Z,63.15
2018-03-04T05:27:34.168Z,62.95
2018-03-04T05:30:03.276Z,62.14
2018-03-04T05:32:31.640Z,62.32
2018-03-04T05:34:59.937Z,62.35
2018-03-04T05:37:28.308Z,64.09
2018-03-04T05:39:56.576Z,62.45
2018-03-04T05:42:24.860Z,63.47
2018-03-04T05:44:53.172Z,62.70
2018-03-04T05:47:22.547Z,63.16
2018-03-04T05:49:51.048Z,63.88
2018-03-04T05:52:19.806Z,62.97
2018-03-04T05:54:48.559Z,63.13
2018-03-04T05:57:17.728Z,63.06
2018-03-04T05:59:46.065Z,63.02
2018-03-04T06:02:14.337Z,62.88
2018-03-04T06:04:42.943Z,63.60
2018-03-04T06:07:11.309Z,63.54
2018-03-04T06:09:39.615Z,62.65
2018-03-04T06:12:08.481Z,63.08
2018-03-04T06:14:36.898Z,63.35
2018-03-04T06:17:05.162Z,63.29
2018-03-04T06:19:33.471Z,62.79
2018-03-04T06:22:03.117Z,62.87
2018-03-04T06:24:31.404Z,62.45
2018-03-04T06:26:59.800Z,63.14
2018-03-04T06:29:28.080Z,63.72
2018-03-04T06:31:56.761Z,63.36
2018-03-04T06:34:25.639Z,64.48
2018-03-04T06:36:54.679Z,64.59
2018-03-04T06:39:23.727Z,64.30
2018-03-04T06:41:52.188Z,63.77
2018-03-04T06:44:20.479Z,64.21
2018-03-04T06:46:49.305Z,64.53
2018-03-04T06:49:17.599Z,63.96
2018-03-04T06:51:45.879Z,63.94
2018-03-04T06:54:14.949Z,64.21
2018-03-04T06:56:43.332Z,64.11
2018-03-04T06:59:11.596Z,63.84
2018-03-04T07:01:40.590Z,64.35
2018-03-04T07:04:09.071Z,64.96
2018-03-04T07:06:37.376Z,64.13
2018-03-04T07:09:05.690Z,64.25
2018-03-04T07:11:34.285Z,63.74
2018-03-04T07:14:02.580Z,63.44
2018-03-04T07:16:30.851Z,63.39
2018-03-04T07:18:59.553Z,62.54
2018-03-04T07:21:27.823Z,63.90
2018-03-04T07:23:56.211Z,63.86
2018-03-04T07:26:25.013Z,64.13
2018-03-04T07:28:53.375Z,64.52
2018-03-04T07:31:22.044Z,64.02
2018-03-04T07:33:50.329Z,64.18
2018-03-04T07:36:18.683Z,62.71
2018-03-04T07:38:47.768Z,62.32
2018-03-04T07:41:17.652Z,62.89
2018-03-04T07:43:46.439Z,62.59
2018-03-04T07:46:15.100Z,63.15
2018-03-04T07:48:43.388Z,62.65
2018-03-04T07:51:11.657Z,63.71
2018-03-04T07:53:40.235Z,62.50
2018-03-04T07:56:09.840Z,62.40
2018-03-04T07:58:38.128Z,60.79
2018-03-04T08:01:06.468Z,61.53
2018-03-04T08:03:35.507Z,62.28
2018-03-04T08:06:03.997Z,61.51
2018-03-04T08:08:32.717Z,61.05
2018-03-04T08:11:01.911Z,61.88
2018-03-04T08:13:30.185Z,62.29
2018-03-04T08:16:00.168Z,62.54
2018-03-04T08:18:28.453Z,61.39
2018-03-04T08:20:56.748Z,60.54
2018-03-04T08:23:25.072Z,60.66
2018-03-04T08:25:53.353Z,60.25
2018-03-04T08:28:33.559Z,60.64
2018-03-04T08:31:01.825Z,59.35
2018-03-04T08:33:30.297Z,61.13
2018-03-04T08:35:58.604Z,60.70
2018-03-04T08:38:26.889Z,59.58
2018-03-04T08:40:56.052Z,59.66
2018-03-04T08:43:24.329Z,59.79
2018-03-04T08:45:52.613Z,59.07
2018-03-04T08:48:21.193Z,59.21
2018-03-04T08:50:49.496Z,59.23
2018-03-04T08:53:17.768Z,59.50
2018-03-04T08:55:46.544Z,59.72
2018-03-04T08:58:14.919Z,57.92
2018-03-04T09:00:43.204Z,58.75
2018-03-04T09:03:11.562Z,58.48
2018-03-04T09:05:40.299Z,58.34
2018-03-04T09:08:08.589Z,57.15
2018-03-04T09:10:36.879Z,56.60
2018-03-04T09:13:06.040Z,58.69
2018-03-04T09:15:34.561Z,59.23
2018-03-04T09:18:04.426Z,57.39
2018-03-04T09:20:32.804Z,57.88
2018-03-04T09:23:01.100Z,57.18
2018-03-04T09:25:29.785Z,58.63
2018-03-04T09:27:58.118Z,58.30
2018-03-04T09:30:27.617Z,58.04
2018-03-04T09:32:55.889Z,57.02
2018-03-04T09:35:25.702Z,59.12
2018-03-04T09:37:54.824Z,58.50
2018-03-04T09:40:23.724Z,57.57
2018-03-04T09:42:52.440Z,56.15
2018-03-04T09:45:21.428Z,57.34
2018-03-04T09:47:50.198Z,57.62
2018-03-04T09:50:20.168Z,57.71
2018-03-04T09:52:49.304Z,57.15
2018-03-04T09:55:17.584Z,57.35
2018-03-04T09:57:46.809Z,59.51
2018-03-04T10:00:15.132Z,57.04
2018-03-04T10:02:44.176Z,57.88
2018-03-04T10:05:13.227Z,57.57
2018-03-04T10:07:43.062Z,57.18
2018-03-04T10:10:11.364Z,57.66
2018-03-04T10:12:39.950Z,58.36
2018-03-04T10:15:08.242Z,58.60
2018-03-04T10:17:36.632Z,57.66
2018-03-04T10:20:04.923Z,56.68
2018-03-04T10:22:33.985Z,57.36
2018-03-04T10:25:03.026Z,57.30
2018-03-04T10:27:32.372Z,58.62
2018-03-04T10:30:00.737Z,57.44
2018-03-04T10:32:29.938Z,56.74
2018-03-04T10:34:58.525Z,55.66
2018-03-04T10:37:26.827Z,56.69
2018-03-04T10:39:55.959Z,54.76
2018-03-04T10:42:25.210Z,55.57
2018-03-04T10:44:53.589Z,55.52
2018-03-04T10:47:21.860Z,53.62
2018-03-04T10:49:50.892Z,54.94
2018-03-04T10:52:19.888Z,54.35
2018-03-04T10:54:48.598Z,53.33
2018-03-04T10:57:17.645Z,52.44
2018-03-04T10:59:46.233Z,53.43
2018-03-04T11:02:17.330Z,50.85
2018-03-04T11:04:46.379Z,50.81
2018-03-04T11:07:14.649Z,52.59
2018-03-04T11:09:43.059Z,51.61
2018-03-04T11:12:11.301Z,52.11
2018-03-04T11:14:39.590Z,50.91
2018-03-04T11:17:08.001Z,51.10
2018-03-04T11:19:36.386Z,53.64
2018-03-04T11:22:05.419Z,50.94
2018-03-04T11:24:33.696Z,49.74
2018-03-04T11:27:01.978Z,50.64
2018-03-04T11:29:31.602Z,49.39
2018-03-04T11:32:00.399Z,49.71
2018-03-04T11:34:28.704Z,49.21
2018-03-04T11:36:57.024Z,49.43
2018-03-04T11:39:25.309Z,49.37
2018-03-04T11:41:54.001Z,50.21
2018-03-04T11:44:22.716Z,49.39
2018-03-04T11:46:51.057Z,50.22
2018-03-04T11:49:19.367Z,49.67
2018-03-04T11:51:47.634Z,50.81
2018-03-04T11:54:15.901Z,51.47
2018-03-04T11:56:45.673Z,49.96
2018-03-04T11:59:14.719Z,50.26
2018-03-04T12:01:43.740Z,51.15
2018-03-04T12:04:12.208Z,51.51
2018-03-04T12:06:40.944Z,53.03
2018-03-04T12:09:10.018Z,50.81
2018-03-04T12:11:39.398Z,51.54
2018-03-04T12:14:08.174Z,50.84
2018-03-04T12:16:37.073Z,51.00
2018-03-04T12:19:05.856Z,50.70
2018-03-04T12:21:34.745Z,51.93
2018-03-04T12:24:04.633Z,50.15
2018-03-04T12:26:33.871Z,50.71
2018-03-04T12:29:02.343Z,51.91
2018-03-04T12:31:30.636Z,50.47
2018-03-04T12:33:59.421Z,50.63
2018-03-04T12:36:28.129Z,50.52
2018-03-04T12:38:56.408Z,50.89
2018-03-04T12:41:24.744Z,49.47
2018-03-04T12:43:54.016Z,48.87
2018-03-04T12:46:23.044Z,50.90
2018-03-04T12:48:51.337Z,49.97
2018-03-04T12:51:19.628Z,49.71
2018-03-04T12:53:48.236Z,46.36
2018-03-04T12:56:16.569Z,44.52
2018-03-04T12:58:44.920Z,44.95
2018-03-04T13:01:13.625Z,43.74
2018-03-04T13:03:42.040Z,43.74
2018-03-04T13:06:10.340Z,42.99
2018-03-04T13:08:38.675Z,44.01
2018-03-04T13:11:06.984Z,43.99
2018-03-04T13:13:36.162Z,42.57
2018-03-04T13:16:04.469Z,41.59
2018-03-04T13:18:33.120Z,41.66
2018-03-04T13:21:01.396Z,42.62
2018-03-04T13:23:30.490Z,43.29
2018-03-04T13:25:58.799Z,44.93
2018-03-04T13:28:27.513Z,44.44
2018-03-04T13:30:56.538Z,43.21
2018-03-04T13:33:24.857Z,40.70
2018-03-04T13:35:53.120Z,40.45
2018-03-04T13:38:21.391Z,39.52
2018-03-04T13:40:50.066Z,38.58
2018-03-04T13:43:18.346Z,39.11
2018-03-04T13:45:48.201Z,37.66
2018-03-04T13:48:16.548Z,36.49
2018-03-04T13:50:45.137Z,37.31
2018-03-04T13:53:14.053Z,35.00
2018-03-04T13:55:42.497Z,33.43
2018-03-04T13:58:11.847Z,35.07
2018-03-04T14:00:40.905Z,32.77
2018-03-04T14:03:09.512Z,33.14
2018-03-04T14:05:38.369Z,32.57
2018-03-04T14:08:07.428Z,31.72
2018-03-04T14:10:36.689Z,34.46
2018-03-04T14:13:05.890Z,31.80
2018-03-04T14:15:34.348Z,31.39
2018-03-04T14:18:02.647Z,32.90
2018-03-04T14:20:31.791Z,32.68
2018-03-04T14:23:00.828Z,31.73
2018-03-04T14:25:29.096Z,34.82
2018-03-04T14:27:57.400Z,38.41
2018-03-04T14:30:25.669Z,40.41
2018-03-04T14:32:54.545Z,42.71
2018-03-04T14:35:22.859Z,46.97
2018-03-04T14:37:51.513Z,47.12
2018-03-04T14:40:19.777Z,48.09
2018-03-04T14:42:48.339Z,47.99
2018-03-04T14:45:16.626Z,49.08
2018-03-04T14:47:44.906Z,49.13
2018-03-04T14:50:13.200Z,50.01
2018-03-04T14:52:47.413Z,49.72
2018-03-04T14:55:16.435Z,51.77
2018-03-04T14:57:44.965Z,52.66
2018-03-04T15:00:14.008Z,50.75
2018-03-04T15:02:42.328Z,52.58
2018-03-04T15:05:11.465Z,51.65
2018-03-04T15:07:39.760Z,52.35
2018-03-04T15:10:08.072Z,51.62
2018-03-04T15:12:38.308Z,54.38
2018-03-04T15:15:07.761Z,53.87
2018-03-04T15:17:37.137Z,53.22
2018-03-04T15:20:05.421Z,55.08
2018-03-04T15:22:33.830Z,55.10
2018-03-04T15:25:02.202Z,54.59
2018-03-04T15:27:30.505Z,55.54
2018-03-04T15:29:59.268Z,55.63
2018-03-04T15:32:27.532Z,54.08
2018-03-04T15:34:55.820Z,53.78
2018-03-04T15:37:24.131Z,53.94
2018-03-04T15:39:53.186Z,54.06
2018-03-04T15:42:21.467Z,53.99
2018-03-04T15:44:49.859Z,53.66
2018-03-04T15:47:18.138Z,54.83
2018-03-04T15:49:46.454Z,54.42
2018-03-04T15:52:14.770Z,55.01
2018-03-04T15:54:43.044Z,55.61
2018-03-04T15:57:11.453Z,56.13
2018-03-04T15:59:39.825Z,55.87
2018-03-04T16:02:08.886Z,53.97
2018-03-04T16:04:37.590Z,54.88
2018-03-04T16:07:05.876Z,55.34
2018-03-04T16:09:34.173Z,55.80
2018-03-04T16:12:02.468Z,54.41
2018-03-04T16:14:31.573Z,54.98
2018-03-04T16:17:00.498Z,55.17
2018-03-04T16:19:28.816Z,53.86
2018-03-04T16:21:57.423Z,54.34
2018-03-04T16:24:25.763Z,56.15
2018-03-04T16:26:54.261Z,54.81
2018-03-04T16:29:22.552Z,55.82
2018-03-04T16:31:51.660Z,54.62
2018-03-04T16:34:20.013Z,55.07
2018-03-04T16:36:48.356Z,55.00
2018-03-04T16:39:17.228Z,55.47
2018-03-04T16:41:45.921Z,56.65
2018-03-04T16:44:16.404Z,57.59
2018-03-04T16:46:45.575Z,55.36
2018-03-04T16:49:13.869Z,55.03
2018-03-04T16:51:42.160Z,55.64
2018-03-04T16:54:10.553Z,55.76
2018-03-04T16:56:38.923Z,56.02
2018-03-04T16:59:07.212Z,57.27
2018-03-04T17:01:35.778Z,57.70
2018-03-04T17:04:04.452Z,56.25
2018-03-04T17:06:32.738Z,56.38
2018-03-04T17:09:01.062Z,55.84
2018-03-04T17:11:29.405Z,56.69
2018-03-04T17:13:58.312Z,56.49
2018-03-04T17:16:26.580Z,57.20
2018-03-04T17:18:54.900Z,57.28
2018-03-04T17:21:23.969Z,56.41
2018-03-04T17:23:52.227Z,57.91
2018-03-04T17:26:20.551Z,57.02
2018-03-04T17:28:49.590Z,56.46
2018-03-04T17:31:17.972Z,57.07
2018-03-04T17:33:46.252Z,57.54
2018-03-04T17:36:14.754Z,57.12
2018-03-04T17:38:43.020Z,57.46
2018-03-04T17:41:11.335Z,58.39
2018-03-04T17:43:39.875Z,57.16
2018-03-04T17:46:08.400Z,58.59
2018-03-04T17:48:36.681Z,58.97
2018-03-04T17:51:05.327Z,57.74
2018-03-04T17:53:33.700Z,58.17
2018-03-04T17:56:01.972Z,58.68
2018-03-04T17:58:30.373Z,59.14
2018-03-04T18:00:59.062Z,58.64
2018-03-04T18:03:27.434Z,58.57
2018-03-04T18:05:55.731Z,58.69
2018-03-04T18:08:24.498Z,57.08
2018-03-04T18:10:53.600Z,58.29
2018-03-04T18:13:21.919Z,57.61
2018-03-04T18:15:51.062Z,58.08
2018-03-04T18:18:19.325Z,58.86
2018-03-04T18:20:47.666Z,58.67
2018-03-04T18:23:16.040Z,57.86
2018-03-04T18:25:44.338Z,58.53
2018-03-04T18:28:13.367Z,59.15
2018-03-04T18:30:42.277Z,59.82
2018-03-04T18:33:10.546Z,58.11
2018-03-04T18:35:38.838Z,57.29
2018-03-04T18:38:07.149Z,56.34
2018-03-04T18:40:36.209Z,57.40
2018-03-04T18:43:05.091Z,57.11
2018-03-04T18:45:33.481Z,58.49
2018-03-04T18:48:01.768Z,57.97
2018-03-04T18:50:30.056Z,59.03
2018-03-04T18:52:59.233Z,58.92
2018-03-04T18:55:27.845Z,56.95
2018-03-04T18:57:56.336Z,57.05
2018-03-04T19:00:24.642Z,57.33
2018-03-04T19:02:52.984Z,57.95
2018-03-04T19:05:21.300Z,57.71
2018-03-04T19:07:49.705Z,56.22
2018-03-04T19:10:18.008Z,58.11
2018-03-04T19:12:46.294Z,58.43
2018-03-04T19:15:14.596Z,58.01
2018-03-04T19:17:43.661Z,56.67
2018-03-04T19:20:11.948Z,57.85
2018-03-04T19:22:40.697Z,57.59
2018-03-04T19:25:09.270Z,58.41
2018-03-04T19:27:37.552Z,58.61
2018-03-04T19:30:05.966Z,58.87
2018-03-04T19:32:34.240Z,57.70
2018-03-04T19:35:02.524Z,58.20
2018-03-04T19:37:30.920Z,58.39
2018-03-04T19:39:59.824Z,57.99
2018-03-04T19:42:28.898Z,57.60
2018-03-04T19:44:57.705Z,57.40
2018-03-04T19:47:26.148Z,56.95
2018-03-04T19:49:54.888Z,58.18
2018-03-04T19:52:24.547Z,57.49
2018-03-04T19:54:53.050Z,58.91
2018-03-04T19:57:22.241Z,57.87
2018-03-04T19:59:50.535Z,58.16
2018-03-04T20:02:18.870Z,58.61
2018-03-04T20:04:47.873Z,59.19
2018-03-04T20:07:16.169Z,59.08
2018-03-04T20:09:44.477Z,58.77
2018-03-04T20:12:12.772Z,58.71
2018-03-04T20:14:41.873Z,58.92
2018-03-04T20:17:10.169Z,58.29
2018-03-04T20:19:38.469Z,58.85
2018-03-04T20:22:06.864Z,59.03
2018-03-04T20:24:35.781Z,59.43
2018-03-04T20:27:04.057Z,58.60
2018-03-04T20:29:32.504Z,58.21
2018-03-04T20:32:01.199Z,58.42
2018-03-04T20:34:30.193Z,58.62
2018-03-04T20:36:58.509Z,58.63
2018-03-04T20:39:27.574Z,58.51
2018-03-04T20:41:56.022Z,58.56
2018-03-04T20:44:24.524Z,57.95
2018-03-04T20:46:52.902Z,58.09
2018-03-04T20:49:21.171Z,58.50
2018-03-04T20:51:49.536Z,58.16
2018-03-04T20:54:18.489Z,58.56
2018-03-04T20:56:47.165Z,57.44
2018-03-04T20:59:15.432Z,57.00
2018-03-04T21:01:43.729Z,57.35
2018-03-04T21:04:12.802Z,57.53
2018-03-04T21:06:41.121Z,57.77
2018-03-04T21:09:10.181Z,57.68
2018-03-04T21:11:39.152Z,58.50
2018-03-04T21:14:08.216Z,58.17
2018-03-04T21:16:38.719Z,57.97
2018-03-04T21:19:07.916Z,58.20
2018-03-04T21:21:36.609Z,57.21
2018-03-04T21:24:05.774Z,56.91
2018-03-04T21:26:34.085Z,57.50
2018-03-04T21:29:02.773Z,58.16
2018-03-04T21:31:31.052Z,56.96
2018-03-04T21:34:00.218Z,57.53
2018-03-04T21:36:28.496Z,57.18
2018-03-04T21:38:56.780Z,58.09
2018-03-04T21:41:25.088Z,57.85
2018-03-04T21:43:54.417Z,57.91
2018-03-04T21:46:23.252Z,58.32
2018-03-04T21:48:52.136Z,57.64
2018-03-04T21:51:20.409Z,57.79
2018-03-04T21:53:48.685Z,57.72
2018-03-04T21:56:17.062Z,57.10
2018-03-04T21:58:45.339Z,57.94
2018-03-04T22:01:13.939Z,57.81
2018-03-04T22:03:42.503Z,57.85
2018-03-04T22:06:10.772Z,57.55
2018-03-04T22:08:39.041Z,58.26
2018-03-04T22:11:07.338Z,57.89
2018-03-04T22:13:35.628Z,58.08
2018-03-04T22:16:03.930Z,57.84
2018-03-04T22:18:32.588Z,58.26
2018-03-04T22:21:00.870Z,58.14
2018-03-04T22:23:29.150Z,58.67
2018-03-04T22:25:57.443Z,58.36
2018-03-04T22:28:25.912Z,58.03
2018-03-04T22:30:54.709Z,56.87
2018-03-04T22:33:23.637Z,57.71
2018-03-04T22:35:52.689Z,57.96
2018-03-04T22:38:20.951Z,57.74
2018-03-04T22:40:49.425Z,58.17
2018-03-04T22:43:17.709Z,58.88
2018-03-04T22:45:46.521Z,58.97
2018-03-04T22:48:15.488Z,57.73
2018-03-04T22:50:43.784Z,59.54
2018-03-04T22:53:12.059Z,57.88
2018-03-04T22:55:40.363Z,58.22
2018-03-04T22:58:08.664Z,59.70
2018-03-04T23:00:37.696Z,57.78
2018-03-04T23:03:06.028Z,58.31
2018-03-04T23:05:35.080Z,57.93
2018-03-04T23:08:03.352Z,58.93
2018-03-04T23:10:31.657Z,59.00
2018-03-04T23:12:59.957Z,57.59
2018-03-04T23:15:29.050Z,58.19
2018-03-04T23:17:57.367Z,57.85
2018-03-04T23:20:25.645Z,58.24
2018-03-04T23:22:54.144Z,58.41
2018-03-04T23:25:23.174Z,58.09
2018-03-04T23:27:52.210Z,58.71
2018-03-04T23:30:20.503Z,57.16
2018-03-04T23:32:48.796Z,57.18
2018-03-04T23:35:17.073Z,57.25
2018-03-04T23:37:45.441Z,57.11
2018-03-04T23:40:13.828Z,56.60
2018-03-04T23:42:42.246Z,57.49
2018-03-04T23:45:11.092Z,57.86
2018-03-04T23:47:40.240Z,57.92
2018-03-04T23:50:08.573Z,57.91
2018-03-04T23:52:36.865Z,57.47
2018-03-04T23:55:05.129Z,58.08
2018-03-04T23:57:33.516Z,57.04
